createdAt,value
2023-03-11T00:00:18.466Z,0.60
2023-03-11T00:02:46.750Z,0.65
2023-03-11T00:05:25.774Z,0.60
2023-03-11T00:07:52.956Z,0.70
2023-03-11T00:10:27.988Z,0.60
2023-03-11T00:13:10.615Z,0.50
2023-03-11T00:15:38.332Z,0.60
2023-03-11T00:18:05.803Z,0.60
2023-03-11T00:20:35.454Z,0.47
2023-03-11T00:23:03.188Z,0.75
2023-03-11T00:25:31.840Z,0.68
2023-03-11T00:27:58.982Z,0.60
2023-03-11T00:30:26.576Z,0.80
2023-03-11T00:32:55.209Z,0.50
2023-03-11T00:35:25.248Z,0.77
2023-03-11T00:37:54.938Z,0.77
2023-03-11T00:40:23.463Z,0.80
2023-03-11T00:42:50.143Z,0.60
2023-03-11T00:45:17.156Z,0.45
2023-03-11T00:47:43.900Z,0.68
2023-03-11T00:50:15.306Z,1.00
2023-03-11T00:52:41.918Z,0.70
2023-03-11T00:55:08.675Z,0.82
2023-03-11T00:57:35.225Z,0.63
2023-03-11T01:00:01.725Z,0.77
2023-03-11T01:02:28.474Z,0.70
2023-03-11T01:04:55.558Z,0.47
2023-03-11T01:07:22.811Z,0.65
2023-03-11T01:09:49.581Z,0.60
2023-03-11T01:12:16.229Z,0.77
2023-03-11T01:14:42.882Z,0.80
2023-03-11T01:17:09.732Z,0.80
2023-03-11T01:19:36.197Z,0.60
2023-03-11T01:22:02.783Z,0.70
2023-03-11T01:24:29.968Z,0.57
2023-03-11T01:26:56.485Z,0.60
2023-03-11T01:29:23.044Z,0.70
2023-03-11T01:31:50.783Z,0.70
2023-03-11T01:34:17.259Z,0.68
2023-03-11T01:36:43.835Z,0.70
2023-03-11T01:39:10.714Z,1.00
2023-03-11T01:41:37.203Z,0.73
2023-03-11T01:44:04.199Z,0.88
2023-03-11T01:46:40.106Z,0.88
2023-03-11T01:49:12.501Z,1.00
2023-03-11T01:51:42.295Z,0.70
2023-03-11T01:54:13.919Z,0.80
2023-03-11T01:56:41.480Z,0.80
2023-03-11T01:59:09.609Z,0.90
2023-03-11T02:01:44.033Z,1.10
2023-03-11T02:04:11.004Z,0.70
2023-03-11T02:06:38.057Z,1.10
2023-03-11T02:09:04.855Z,1.10
2023-03-11T02:11:31.695Z,1.20
2023-03-11T02:14:01.817Z,1.40
2023-03-11T02:16:28.426Z,1.20
2023-03-11T02:18:55.052Z,1.35
2023-03-11T02:21:28.940Z,1.67
2023-03-11T02:24:05.094Z,1.30
2023-03-11T02:27:01.611Z,1.30
2023-03-11T02:29:28.975Z,1.00
2023-03-11T02:31:59.979Z,1.50
2023-03-11T02:34:29.869Z,1.27
2023-03-11T02:36:59.068Z,1.20
2023-03-11T02:39:37.370Z,1.40
2023-03-11T02:42:25.344Z,1.73
2023-03-11T02:45:12.662Z,1.20
2023-03-11T02:47:39.611Z,1.50
2023-03-11T02:50:08.231Z,1.20
2023-03-11T02:52:36.328Z,1.60
2023-03-11T02:55:03.326Z,1.70
2023-03-11T02:57:29.835Z,1.45
2023-03-11T02:59:56.378Z,1.80
2023-03-11T03:02:23.027Z,1.60
2023-03-11T03:04:49.680Z,1.27
2023-03-11T03:07:16.235Z,1.30
2023-03-11T03:09:42.781Z,1.30
2023-03-11T03:12:09.421Z,1.23
2023-03-11T03:14:35.958Z,1.15
2023-03-11T03:17:02.729Z,1.20
2023-03-11T03:19:29.374Z,1.15
2023-03-11T03:21:55.906Z,1.40
2023-03-11T03:24:22.398Z,1.25
2023-03-11T03:26:48.899Z,1.20
2023-03-11T03:29:15.408Z,1.70
2023-03-11T03:31:41.920Z,1.23
2023-03-11T03:34:08.757Z,1.52
2023-03-11T03:36:35.264Z,1.10
2023-03-11T03:39:01.831Z,1.13
2023-03-11T03:41:28.325Z,1.00
2023-03-11T03:43:54.904Z,0.95
2023-03-11T03:46:22.209Z,0.90
2023-03-11T03:48:48.785Z,1.55
2023-03-11T03:51:15.644Z,1.33
2023-03-11T03:53:45.383Z,1.13
2023-03-11T03:56:14.736Z,1.08
2023-03-11T03:58:41.555Z,1.47
2023-03-11T04:01:09.347Z,1.02
2023-03-11T04:03:35.916Z,1.27
2023-03-11T04:06:22.592Z,1.30
2023-03-11T04:08:51.113Z,1.38
2023-03-11T04:11:18.142Z,0.98
2023-03-11T04:13:44.747Z,0.80
2023-03-11T04:16:17.821Z,1.00
2023-03-11T04:18:46.167Z,0.80
2023-03-11T04:21:12.686Z,1.30
2023-03-11T04:23:39.451Z,1.30
2023-03-11T04:26:05.976Z,1.20
2023-03-11T04:28:32.554Z,1.70
2023-03-11T04:30:59.090Z,1.55
2023-03-11T04:33:25.633Z,1.58
2023-03-11T04:35:52.197Z,1.23
2023-03-11T04:38:18.939Z,1.08
2023-03-11T04:40:45.991Z,1.20
2023-03-11T04:43:12.566Z,1.45
2023-03-11T04:45:39.911Z,1.48
2023-03-11T04:48:07.077Z,1.70
2023-03-11T04:50:36.746Z,1.60
2023-03-11T04:53:03.234Z,1.45
2023-03-11T04:55:29.746Z,1.67
2023-03-11T04:57:56.236Z,1.10
2023-03-11T05:00:22.819Z,1.40
2023-03-11T05:02:49.400Z,1.40
2023-03-11T05:05:15.908Z,0.98
2023-03-11T05:07:42.523Z,0.90
2023-03-11T05:10:09.787Z,1.20
2023-03-11T05:12:36.336Z,0.70
2023-03-11T05:15:03.431Z,1.08
2023-03-11T05:17:29.931Z,1.02
2023-03-11T05:19:56.979Z,1.10
2023-03-11T05:22:23.755Z,1.58
2023-03-11T05:24:50.359Z,1.48
2023-03-11T05:27:16.937Z,2.00
2023-03-11T05:29:44.294Z,1.50
2023-03-11T05:32:12.184Z,1.55
2023-03-11T05:34:38.990Z,1.52
2023-03-11T05:37:05.614Z,1.50
2023-03-11T05:39:32.230Z,1.40
2023-03-11T05:41:58.774Z,0.90
2023-03-11T05:44:25.449Z,1.55
2023-03-11T05:46:52.186Z,1.40
2023-03-11T05:49:19.412Z,1.63
2023-03-11T05:51:47.227Z,1.55
2023-03-11T05:54:13.713Z,2.00
2023-03-11T05:56:43.728Z,1.90
2023-03-11T05:59:12.336Z,1.88
2023-03-11T06:01:40.401Z,2.10
2023-03-11T06:04:07.281Z,1.40
2023-03-11T06:06:33.851Z,1.48
2023-03-11T06:09:00.424Z,1.50
2023-03-11T06:11:27.567Z,1.70
2023-03-11T06:13:55.597Z,1.73
2023-03-11T06:16:23.595Z,2.22
2023-03-11T06:18:51.896Z,1.60
2023-03-11T06:21:21.122Z,1.98
2023-03-11T06:23:48.491Z,1.17
2023-03-11T06:26:17.591Z,1.52
2023-03-11T06:28:45.042Z,1.60
2023-03-11T06:31:15.784Z,1.48
2023-03-11T06:33:43.158Z,1.50
2023-03-11T06:36:10.835Z,1.60
2023-03-11T06:38:37.531Z,1.45
2023-03-11T06:41:05.575Z,2.10
2023-03-11T06:43:32.999Z,2.60
2023-03-11T06:46:00.175Z,3.00
2023-03-11T06:48:27.541Z,2.45
2023-03-11T06:50:58.441Z,2.58
2023-03-11T06:53:25.386Z,3.00
2023-03-11T06:56:02.810Z,2.72
2023-03-11T06:58:31.951Z,2.15
2023-03-11T07:01:10.813Z,2.90
2023-03-11T07:03:37.664Z,2.88
2023-03-11T07:06:06.579Z,2.75
2023-03-11T07:08:33.639Z,3.75
2023-03-11T07:11:12.718Z,6.20
2023-03-11T07:13:39.307Z,2.55
2023-03-11T07:16:11.563Z,3.00
2023-03-11T07:18:38.322Z,2.65
2023-03-11T07:21:06.543Z,3.08
2023-03-11T07:23:34.051Z,2.05
2023-03-11T07:26:05.161Z,2.60
2023-03-11T07:28:32.126Z,3.05
2023-03-11T07:30:58.741Z,2.50
2023-03-11T07:33:25.386Z,3.95
2023-03-11T07:35:52.394Z,4.97
2023-03-11T07:38:19.084Z,4.10
2023-03-11T07:40:45.710Z,4.57
2023-03-11T07:43:12.218Z,4.57
2023-03-11T07:45:38.836Z,4.80
2023-03-11T07:48:08.430Z,4.57
2023-03-11T07:50:36.220Z,4.68
2023-03-11T07:53:02.817Z,5.05
2023-03-11T07:55:29.329Z,5.80
2023-03-11T07:57:55.807Z,4.82
2023-03-11T08:00:22.636Z,3.90
2023-03-11T08:02:49.320Z,3.72
2023-03-11T08:05:16.135Z,4.63
2023-03-11T08:07:42.842Z,3.47
2023-03-11T08:10:10.094Z,3.25
2023-03-11T08:12:36.643Z,3.00
2023-03-11T08:15:03.432Z,2.47
2023-03-11T08:17:29.982Z,2.10
2023-03-11T08:19:56.518Z,2.67
2023-03-11T08:22:24.326Z,1.27
2023-03-11T08:24:52.389Z,1.30
2023-03-11T08:27:18.935Z,1.45
2023-03-11T08:29:45.388Z,0.90
2023-03-11T08:32:11.942Z,0.90
2023-03-11T08:34:38.798Z,1.10
2023-03-11T08:37:07.221Z,0.90
2023-03-11T08:39:33.714Z,0.75
2023-03-11T08:42:00.200Z,0.75
2023-03-11T08:44:26.727Z,0.60
2023-03-11T08:46:53.245Z,0.50
2023-03-11T08:49:20.333Z,0.50
2023-03-11T08:51:47.185Z,1.00
2023-03-11T08:54:13.995Z,1.00
2023-03-11T08:56:40.458Z,1.20
2023-03-11T08:59:07.098Z,2.10
2023-03-11T09:01:33.604Z,3.35
2023-03-11T09:04:00.257Z,1.70
2023-03-11T09:06:26.925Z,0.70
2023-03-11T09:08:53.710Z,0.50
2023-03-11T09:11:20.194Z,0.45
2023-03-11T09:13:46.655Z,0.30
2023-03-11T09:16:18.764Z,0.38
2023-03-11T09:18:47.766Z,0.50
2023-03-11T09:21:14.715Z,0.40
2023-03-11T09:23:44.454Z,0.77
2023-03-11T09:26:12.000Z,0.85
2023-03-11T09:28:38.714Z,0.60
2023-03-11T09:31:05.344Z,0.20
2023-03-11T09:33:32.107Z,0.20
2023-03-11T09:35:59.082Z,0.20
2023-03-11T09:38:31.422Z,0.30
2023-03-11T09:41:03.844Z,0.30
2023-03-11T09:43:55.338Z,0.30
2023-03-11T09:46:27.457Z,0.30
2023-03-11T09:48:59.147Z,0.40
2023-03-11T09:51:28.505Z,0.35
2023-03-11T09:54:05.258Z,0.30
2023-03-11T09:56:34.645Z,0.30
2023-03-11T09:59:05.507Z,0.20
2023-03-11T10:01:50.265Z,0.40
2023-03-11T10:04:58.873Z,0.40
2023-03-11T10:07:28.982Z,0.40
2023-03-11T10:09:57.573Z,0.30
2023-03-11T10:12:30.106Z,0.40
2023-03-11T10:15:17.942Z,0.30
2023-03-11T10:17:53.261Z,0.30
2023-03-11T10:21:08.803Z,0.40
2023-03-11T10:24:05.994Z,0.20
2023-03-11T10:26:36.646Z,0.20
2023-03-11T10:29:23.883Z,0.30
2023-03-11T10:32:10.586Z,0.30
2023-03-11T10:34:47.256Z,0.30
2023-03-11T10:37:17.944Z,0.20
2023-03-11T10:39:46.997Z,0.28
2023-03-11T10:42:15.195Z,0.32
2023-03-11T10:44:42.770Z,0.60
2023-03-11T10:47:20.582Z,0.40
2023-03-11T10:49:47.151Z,1.20
2023-03-11T10:52:13.978Z,1.33
2023-03-11T10:54:48.466Z,1.30
2023-03-11T10:57:30.436Z,1.10
2023-03-11T10:59:59.215Z,0.93
2023-03-11T11:02:52.181Z,0.60
2023-03-11T11:05:18.746Z,0.68
2023-03-11T11:07:46.764Z,0.82
2023-03-11T11:10:27.740Z,1.40
2023-03-11T11:13:01.490Z,0.60
2023-03-11T11:15:34.525Z,0.90
2023-03-11T11:18:03.155Z,0.90
2023-03-11T11:20:33.708Z,0.90
2023-03-11T11:23:02.361Z,1.00
2023-03-11T11:25:37.320Z,0.90
2023-03-11T11:28:18.627Z,1.02
2023-03-11T11:31:03.137Z,0.90
2023-03-11T11:33:40.280Z,0.95
2023-03-11T11:36:13.466Z,1.05
2023-03-11T11:38:41.028Z,0.80
2023-03-11T11:41:13.605Z,0.80
2023-03-11T11:43:57.906Z,0.90
2023-03-11T11:46:39.390Z,1.10
2023-03-11T11:49:22.773Z,0.85
2023-03-11T11:51:53.598Z,0.82
2023-03-11T11:54:26.215Z,0.70
2023-03-11T11:57:01.089Z,0.93
2023-03-11T11:59:31.211Z,0.80
2023-03-11T12:02:39.481Z,1.00
2023-03-11T12:05:26.074Z,0.82
2023-03-11T12:08:31.963Z,2.03
2023-03-11T12:11:06.868Z,1.50
2023-03-11T12:13:49.526Z,0.85
2023-03-11T12:16:22.384Z,1.00
2023-03-11T12:18:57.251Z,0.80
2023-03-11T12:21:55.956Z,0.90
2023-03-11T12:24:28.627Z,1.10
2023-03-11T12:26:59.725Z,1.08
2023-03-11T12:29:30.294Z,1.30
2023-03-11T12:31:57.487Z,1.20
2023-03-11T12:34:24.318Z,1.08
2023-03-11T12:36:52.738Z,1.10
2023-03-11T12:39:24.942Z,1.27
2023-03-11T12:42:18.002Z,1.00
2023-03-11T12:44:46.186Z,1.08
2023-03-11T12:47:25.474Z,1.20
2023-03-11T12:49:54.265Z,1.38
2023-03-11T12:52:28.950Z,1.20
2023-03-11T12:54:55.577Z,1.20
2023-03-11T12:57:32.487Z,1.40
2023-03-11T13:00:32.714Z,1.85
2023-03-11T13:03:39.899Z,1.40
2023-03-11T13:06:48.662Z,1.60
2023-03-11T13:09:16.711Z,1.60
2023-03-11T13:11:50.360Z,1.42
2023-03-11T13:14:38.009Z,2.20
2023-03-11T13:17:34.667Z,1.70
2023-03-11T13:20:40.779Z,1.50
2023-03-11T13:23:10.102Z,1.50
2023-03-11T13:26:16.555Z,1.70
2023-03-11T13:29:08.774Z,1.50
2023-03-11T13:31:50.202Z,1.58
2023-03-11T13:34:18.007Z,1.42
2023-03-11T13:37:07.813Z,1.60
2023-03-11T13:39:43.326Z,1.60
2023-03-11T13:42:46.545Z,1.60
2023-03-11T13:45:22.531Z,1.42
2023-03-11T13:47:49.252Z,1.27
2023-03-11T13:50:26.158Z,1.48
2023-03-11T13:52:53.805Z,1.27
2023-03-11T13:55:30.980Z,1.90
2023-03-11T13:57:58.146Z,1.10
2023-03-11T14:00:26.675Z,1.23
2023-03-11T14:02:58.801Z,1.70
2023-03-11T14:05:27.907Z,1.73
2023-03-11T14:07:55.405Z,1.50
2023-03-11T14:10:27.749Z,1.77
2023-03-11T14:13:16.222Z,1.85
2023-03-11T14:15:48.120Z,1.75
2023-03-11T14:18:34.216Z,2.13
2023-03-11T14:21:02.061Z,2.28
2023-03-11T14:23:32.801Z,2.05
2023-03-11T14:26:01.331Z,1.80
2023-03-11T14:28:29.248Z,1.80
2023-03-11T14:31:01.070Z,1.90
2023-03-11T14:33:28.217Z,2.83
2023-03-11T14:35:58.759Z,2.20
2023-03-11T14:38:30.182Z,2.10
2023-03-11T14:41:01.688Z,2.13
2023-03-11T14:43:37.367Z,2.90
2023-03-11T14:46:06.313Z,2.95
2023-03-11T14:48:38.199Z,2.55
2023-03-11T14:51:07.275Z,2.30
2023-03-11T14:53:39.338Z,2.50
2023-03-11T14:56:28.006Z,2.25
2023-03-11T14:59:07.291Z,2.28
2023-03-11T15:01:38.581Z,2.00
2023-03-11T15:04:14.102Z,2.53
2023-03-11T15:06:43.558Z,2.47
2023-03-11T15:09:18.701Z,2.95
2023-03-11T15:11:49.245Z,2.35
2023-03-11T15:14:21.828Z,2.42
2023-03-11T15:16:48.616Z,3.15
2023-03-11T15:19:27.373Z,2.97
2023-03-11T15:21:56.773Z,2.92
2023-03-11T15:24:27.537Z,2.55
2023-03-11T15:27:06.260Z,2.72
2023-03-11T15:29:34.119Z,2.80
2023-03-11T15:32:01.375Z,2.38
2023-03-11T15:34:32.501Z,2.15
2023-03-11T15:37:05.087Z,3.17
2023-03-11T15:39:32.022Z,2.50
2023-03-11T15:42:07.666Z,3.40
2023-03-11T15:44:36.663Z,2.60
2023-03-11T15:47:04.013Z,3.13
2023-03-11T15:49:30.960Z,4.68
2023-03-11T15:52:01.546Z,3.33
2023-03-11T15:54:28.358Z,2.60
2023-03-11T15:56:56.400Z,3.45
2023-03-11T15:59:23.119Z,2.60
2023-03-11T16:01:50.010Z,3.55
2023-03-11T16:04:18.897Z,3.50
2023-03-11T16:06:49.585Z,3.40
2023-03-11T16:09:21.302Z,4.03
2023-03-11T16:11:48.155Z,3.00
2023-03-11T16:14:16.598Z,3.28
2023-03-11T16:16:44.030Z,3.78
2023-03-11T16:19:11.050Z,4.57
2023-03-11T16:21:40.575Z,6.10
2023-03-11T16:24:07.940Z,5.57
2023-03-11T16:26:38.304Z,5.35
2023-03-11T16:31:45.668Z,5.85
2023-03-11T16:34:12.179Z,7.75
2023-03-11T16:36:40.225Z,7.82
2023-03-11T16:39:06.779Z,7.03
2023-03-11T16:41:43.737Z,6.45
2023-03-11T16:44:10.756Z,6.00
2023-03-11T16:46:37.476Z,5.25
2023-03-11T16:49:04.220Z,5.43
2023-03-11T16:51:31.065Z,5.00
2023-03-11T16:53:57.806Z,5.80
2023-03-11T16:56:24.380Z,4.90
2023-03-11T16:58:51.010Z,5.80
2023-03-11T17:01:17.581Z,5.90
2023-03-11T17:03:45.605Z,5.90
2023-03-11T17:06:12.166Z,6.80
2023-03-11T17:08:38.912Z,6.90
2023-03-11T17:11:05.496Z,5.60
2023-03-11T17:13:32.320Z,6.25
2023-03-11T17:16:02.247Z,7.25
2023-03-11T17:18:29.077Z,7.43
2023-03-11T17:20:55.597Z,7.15
2023-03-11T17:23:22.195Z,7.05
2023-03-11T17:25:48.737Z,7.30
2023-03-11T17:28:15.285Z,6.90
2023-03-11T17:30:43.413Z,7.55
2023-03-11T17:33:10.401Z,8.90
2023-03-11T17:35:37.146Z,9.30
2023-03-11T17:38:03.951Z,9.35
2023-03-11T17:40:30.506Z,9.60
2023-03-11T17:42:57.121Z,9.40
2023-03-11T17:45:24.145Z,10.90
2023-03-11T17:47:50.669Z,9.70
2023-03-11T17:50:17.616Z,10.13
2023-03-11T17:52:46.507Z,8.88
2023-03-11T17:55:13.124Z,8.23
2023-03-11T17:57:45.624Z,9.75
2023-03-11T18:00:14.059Z,8.07
2023-03-11T18:02:40.599Z,8.73
2023-03-11T18:05:07.796Z,9.45
2023-03-11T18:07:36.238Z,9.38
2023-03-11T18:10:02.773Z,8.73
2023-03-11T18:12:29.241Z,10.57
2023-03-11T18:14:56.039Z,10.05
2023-03-11T18:17:22.591Z,11.77
2023-03-11T18:19:49.137Z,11.70
2023-03-11T18:22:15.685Z,12.80
2023-03-11T18:24:42.197Z,14.55
2023-03-11T18:27:08.821Z,14.65
2023-03-11T18:29:35.323Z,17.25
2023-03-11T18:32:01.978Z,17.08
2023-03-11T18:34:28.545Z,24.63
2023-03-11T18:36:55.067Z,21.25
2023-03-11T18:39:21.559Z,25.05
2023-03-11T18:41:48.066Z,22.13
2023-03-11T18:44:14.581Z,22.67
2023-03-11T18:46:41.067Z,19.33
2023-03-11T18:49:07.558Z,19.88
2023-03-11T18:51:34.113Z,16.35
2023-03-11T18:54:01.083Z,18.98
2023-03-11T18:56:29.242Z,17.17
2023-03-11T18:59:00.128Z,15.98
2023-03-11T19:01:31.196Z,17.52
2023-03-11T19:07:08.456Z,17.88
2023-03-11T19:09:36.186Z,14.82
2023-03-11T19:19:54.433Z,16.35
2023-03-11T19:22:41.965Z,15.40
2023-03-11T19:25:09.673Z,14.27
2023-03-11T19:27:37.495Z,12.75
2023-03-11T19:30:09.368Z,16.15
2023-03-11T19:32:38.446Z,12.30
2023-03-11T19:35:12.611Z,14.85
2023-03-11T19:37:40.890Z,15.68
2023-03-11T19:40:11.773Z,15.50
2023-03-11T19:42:42.112Z,19.95
2023-03-11T19:45:09.234Z,19.23
2023-03-11T19:47:36.020Z,20.08
2023-03-11T19:50:02.595Z,22.48
2023-03-11T19:52:29.114Z,23.73
2023-03-11T19:54:55.632Z,23.02
2023-03-11T19:57:22.383Z,23.63
2023-03-11T19:59:48.976Z,22.20
2023-03-11T20:02:18.726Z,25.20
2023-03-11T20:04:47.764Z,21.50
2023-03-11T20:07:14.503Z,20.70
2023-03-11T20:09:43.179Z,20.50
2023-03-11T20:12:15.032Z,22.67
2023-03-11T20:14:51.239Z,21.13
2023-03-11T20:17:17.879Z,21.65
2023-03-11T20:19:44.405Z,21.85
2023-03-11T20:22:10.945Z,22.08
2023-03-11T20:24:37.572Z,21.30
2023-03-11T20:27:04.181Z,23.33
2023-03-11T20:29:30.822Z,22.98
2023-03-11T20:31:57.425Z,22.58
2023-03-11T20:34:25.451Z,21.58
2023-03-11T20:36:52.052Z,22.73
2023-03-11T20:39:18.684Z,23.48
2023-03-11T20:41:45.383Z,24.15
2023-03-11T20:44:16.046Z,23.92
2023-03-11T20:46:43.442Z,20.50
2023-03-11T20:49:12.504Z,23.50
2023-03-11T20:51:44.714Z,22.10
2023-03-11T20:54:11.911Z,25.95
2023-03-11T20:56:38.466Z,21.80
2023-03-11T20:59:07.435Z,23.23
2023-03-11T21:01:36.097Z,21.40
2023-03-11T21:04:22.894Z,22.67
2023-03-11T21:06:50.322Z,33.33
2023-03-11T21:09:18.917Z,21.20
2023-03-11T21:11:45.678Z,19.02
2023-03-11T21:14:15.237Z,19.13
2023-03-11T21:16:41.856Z,22.52
2023-03-11T21:19:08.946Z,24.05
2023-03-11T21:21:36.152Z,22.50
2023-03-11T21:24:03.597Z,23.98
2023-03-11T21:26:30.171Z,22.63
2023-03-11T21:28:56.685Z,22.17
2023-03-11T21:31:27.118Z,21.55
2023-03-11T21:33:56.649Z,23.98
2023-03-11T21:36:23.552Z,25.23
2023-03-11T21:38:50.591Z,26.58
2023-03-11T21:41:23.736Z,25.20
2023-03-11T21:43:53.476Z,27.38
2023-03-11T21:46:27.043Z,25.20
2023-03-11T21:48:55.472Z,25.92
2023-03-11T21:51:24.194Z,26.33
2023-03-11T21:53:51.140Z,22.90
2023-03-11T21:56:17.904Z,22.50
2023-03-11T21:58:44.972Z,21.73
2023-03-11T22:01:14.524Z,23.33
2023-03-11T22:03:41.216Z,23.45
2023-03-11T22:06:10.723Z,23.77
2023-03-11T22:08:40.288Z,22.13
2023-03-11T22:11:08.372Z,23.33
2023-03-11T22:13:35.442Z,22.23
2023-03-11T22:16:04.156Z,21.83
2023-03-11T22:18:32.254Z,23.42
2023-03-11T22:20:59.774Z,26.17
2023-03-11T22:23:26.623Z,24.70
2023-03-11T22:25:53.402Z,23.17
2023-03-11T22:28:20.051Z,23.27
2023-03-11T22:30:46.770Z,20.80
2023-03-11T22:33:13.498Z,21.52
2023-03-11T22:35:40.039Z,19.52
2023-03-11T22:38:06.653Z,18.58
2023-03-11T22:40:34.138Z,16.83
2023-03-11T22:43:00.740Z,14.00
2023-03-11T22:45:27.286Z,15.05
2023-03-11T22:47:56.515Z,14.50
2023-03-11T22:50:23.039Z,12.63
2023-03-11T22:52:49.607Z,13.25
2023-03-11T22:55:16.288Z,15.38
2023-03-11T22:57:44.115Z,14.38
2023-03-11T23:00:16.121Z,13.20
2023-03-11T23:03:01.754Z,12.65
2023-03-11T23:05:31.085Z,11.13
2023-03-11T23:08:05.261Z,11.43
2023-03-11T23:10:31.794Z,11.73
2023-03-11T23:12:58.377Z,10.65
2023-03-11T23:15:24.944Z,12.32
2023-03-11T23:17:51.493Z,12.60
2023-03-11T23:20:20.130Z,12.98
2023-03-11T23:22:46.617Z,12.13
2023-03-11T23:25:15.719Z,12.35
2023-03-11T23:27:43.603Z,13.32
2023-03-11T23:30:12.092Z,13.95
2023-03-11T23:32:38.825Z,12.43
2023-03-11T23:35:05.985Z,12.18
2023-03-11T23:37:32.618Z,12.65
2023-03-11T23:39:59.198Z,11.77
2023-03-11T23:42:26.476Z,12.90
2023-03-11T23:44:53.818Z,14.07
2023-03-11T23:47:20.438Z,12.45
2023-03-11T23:49:47.017Z,13.30
2023-03-11T23:52:15.907Z,14.18
2023-03-11T23:54:42.420Z,13.73
2023-03-11T23:57:08.942Z,14.73
2023-03-11T23:59:35.594Z,15.88
